Terminal Aerodrome Forecast
Issued by NWS Hastings, NE

Home | Current Version | Previous Version | Text Only | Print | Product List | Glossary On
Versions: 1 2 3 4 5 6 7 8 9 10 11 12 13 14 15 16 17 18
000
FTUS43 KGID 280532
TAFGRI
TAF
KGRI 280532Z 2806/2906 04009KT P6SM BKN035 BKN120
     FM280700 36007KT P6SM VCTS OVC045CB
     FM281000 33006KT P6SM OVC040
     FM281800 31009KT P6SM SCT050
     FM290200 27006KT P6SM SCT250=

USA.gov is the U.S. government's official web portal to all federal, state and local government web resources and services.